Terminal Aerodrome Forecast
Issued by NWS

Home | Current Version | Previous Version | Text Only | Print | Product List | Glossary On
Versions: 1 2 3 4 5 6 7 8 9 10 11 12 13 14 15
000
FTUS43 KGLD 221727 AAA
TAFMCK
TAF AMD
KMCK 221727Z 2217/2318 05012KT P6SM BKN100
     FM222100 06012KT P6SM VCTS SCT100CB BKN150
      TEMPO 2221/2222 -TSRA
     FM230100 VRB06KT P6SM SCT090 BKN150=

USA.gov is the U.S. government's official web portal to all federal, state and local government web resources and services.